Nearby METAR Reports

 

KFRG - , , USA
Distance from station: SSW 12mi, 20km
Updated: 04/01/2020 4:53pm
Clear
Clear
 Wind from N
Wind: N 9 mph , 15 km/h
Temperature: 55°F , 13°C
Dew Point: 25°F , -4°C
Humidity: 31%
Barometer: 29.71 inHg , 1006.1 hPa
Clouds: Clear
Visibility: 10 miles , 16 km
2020/04/01 20:53 KFRG 012053Z AUTO 01008KT 340V040 10SM CLR 13/M04 A2971 RMK AO2 SLP061 T01331039 56017
KISP - , , USA
Distance from station: ESE 14mi, 23km
Updated: 04/01/2020 4:56pm
Partly cloudy
Partly cloudy
 Wind from NE
Wind: NE 10 mph , 17 km/h
Temperature: 52°F , 11°C
Dew Point: 27°F , -3°C
Humidity: 38%
Barometer: 29.71 inHg , 1006.1 hPa
Clouds: Partly cloudy
Visibility: 10 miles , 16 km
Cloud details: Few Clouds 5500 ft
Few Clouds 15000 ft
Partly cloudy 25000 ft
2020/04/01 20:56 KISP 012056Z 05009KT 10SM FEW055 FEW150 SCT250 11/M03 A2971 RMK AO2 SLP060 T01111028 56013
 
KBDR - , , USA
Distance from station: NNE 21mi, 34km
Updated: 04/01/2020 4:52pm
Few Clouds
Few Clouds
 Wind from NNW
Wind: NNW 14 mph , 22 km/h, Gust: 21 mph , 33 km/h
Temperature: 55°F , 13°C
Dew Point: 23°F , -5°C
Humidity: 28%
Barometer: 29.69 inHg , 1005.4 hPa
Clouds: Few Clouds
Visibility: 10 miles , 16 km
Cloud details: Few Clouds 7500 ft
2020/04/01 20:52 KBDR 012052Z 34012G18KT 10SM FEW075 13/M05 A2969 RMK AO2 SLP055 T01281050 56019
KHPN - , , USA
Distance from station: WNW 22mi, 35km
Updated: 04/01/2020 4:56pm
Few Clouds
Few Clouds
 Wind from N
Wind: N 14 mph , 22 km/h, Gust: 24 mph , 39 km/h
Temperature: 52°F , 11°C
Dew Point: 21°F , -6°C
Humidity: 30%
Barometer: 29.70 inHg , 1005.8 hPa
Clouds: Few Clouds
Visibility: 10 miles , 16 km
Cloud details: Few Clouds 6000 ft
2020/04/01 20:56 KHPN 012056Z 01012G21KT 10SM FEW060 11/M06 A2970 RMK AO2 PK WND 34029/2031 SLP061 T01111061 56014
 
KHWV - , , USA
Distance from station: ESE 26mi, 41km
Updated: 04/01/2020 4:56pm
Clear
Clear
 Wind from NNE
Wind: NNE 8 mph , 13 km/h
Temperature: 54°F , 12°C
Dew Point: 27°F , -3°C
Humidity: 35%
Barometer: 29.71 inHg , 1006.1 hPa
Clouds: Clear
Visibility: 10 miles , 16 km
2020/04/01 20:56 KHWV 012056Z AUTO 02007KT 360V100 10SM CLR 12/M03 A2971 RMK AO2 SLP061 T01221028 56013 TSNO
KJFK - , , USA
Distance from station: SW 29mi, 46km
Updated: 04/01/2020 4:51pm
Partly cloudy
Partly cloudy
 Wind from N
Wind: N 17 mph , 28 km/h, Gust: 24 mph , 39 km/h
Temperature: 55°F , 13°C
Dew Point: 28°F , -2°C
Humidity: 36%
Barometer: 29.72 inHg , 1006.4 hPa
Clouds: Partly cloudy
Visibility: 10 miles , 16 km
Cloud details: Partly cloudy 6000 ft
Partly cloudy 25000 ft
2020/04/01 20:51 KJFK 012051Z 01015G21KT 10SM SCT060 SCT250 13/M02 A2972 RMK AO2 SLP063 T01281022 56017
 
KLGA - , , USA
Distance from station: WSW 29mi, 47km
Updated: 04/01/2020 4:51pm
Partly cloudy
Partly cloudy
 Wind from N
Wind: N 18 mph , 30 km/h, Gust: 25 mph , 41 km/h
Temperature: 54°F , 12°C
Dew Point: 25°F , -4°C
Humidity: 33%
Barometer: 29.71 inHg , 1006.1 hPa
Clouds: Partly cloudy
Visibility: 10 miles , 16 km
Cloud details: Partly cloudy 6000 ft
Partly cloudy 25000 ft
2020/04/01 20:51 KLGA 012051Z 36016G22KT 10SM SCT060 SCT250 12/M04 A2971 RMK AO2 SLP061 T01221044 58016